createdAt,value
2023-01-26T00:01:30.259Z,-1.80
2023-01-26T00:03:57.531Z,-1.80
2023-01-26T00:06:25.567Z,-1.80
2023-01-26T00:08:54.687Z,-1.80
2023-01-26T00:11:27.146Z,-1.80
2023-01-26T00:13:58.437Z,-1.80
2023-01-26T00:16:26.524Z,-1.90
2023-01-26T00:18:54.009Z,-1.80
2023-01-26T00:21:22.763Z,-1.80
2023-01-26T00:23:51.020Z,-1.90
2023-01-26T00:26:21.128Z,-1.90
2023-01-26T00:28:48.256Z,-1.90
2023-01-26T00:31:18.031Z,-1.90
2023-01-26T00:33:46.239Z,-1.90
2023-01-26T00:36:13.218Z,-1.90
2023-01-26T00:38:40.681Z,-1.90
2023-01-26T00:41:09.321Z,-1.90
2023-01-26T00:43:36.184Z,-1.90
2023-01-26T00:46:03.476Z,-1.90
2023-01-26T00:48:30.278Z,-1.90
2023-01-26T00:50:57.100Z,-1.90
2023-01-26T00:53:23.913Z,-1.90
2023-01-26T00:55:55.903Z,-1.90
2023-01-26T00:58:22.769Z,-1.90
2023-01-26T01:00:49.654Z,-1.90
2023-01-26T01:03:16.531Z,-1.90
2023-01-26T01:05:43.444Z,-1.90
2023-01-26T01:08:12.490Z,-1.90
2023-01-26T01:10:39.267Z,-1.90
2023-01-26T01:13:06.159Z,-1.90
2023-01-26T01:15:32.936Z,-1.90
2023-01-26T01:17:59.929Z,-2.00
2023-01-26T01:20:26.725Z,-2.00
2023-01-26T01:22:54.037Z,-2.00
2023-01-26T01:25:20.796Z,-2.00
2023-01-26T01:27:47.671Z,-2.00
2023-01-26T01:30:14.748Z,-2.10
2023-01-26T01:32:41.933Z,-2.10
2023-01-26T01:35:09.136Z,-2.10
2023-01-26T01:37:36.825Z,-2.00
2023-01-26T01:40:03.875Z,-2.10
2023-01-26T01:42:32.995Z,-2.10
2023-01-26T01:45:38.810Z,-2.00
2023-01-26T01:48:11.340Z,-2.10
2023-01-26T01:50:40.301Z,-2.10
2023-01-26T01:53:10.436Z,-2.10
2023-01-26T01:55:37.584Z,-2.10
2023-01-26T01:58:06.529Z,-2.10
2023-01-26T02:00:33.483Z,-2.10
2023-01-26T02:03:11.874Z,-2.10
2023-01-26T02:05:54.873Z,-2.10
2023-01-26T02:08:35.503Z,-2.10
2023-01-26T02:11:17.027Z,-2.10
2023-01-26T02:13:47.359Z,-2.10
2023-01-26T02:16:14.698Z,-2.10
2023-01-26T02:18:41.639Z,-2.10
2023-01-26T02:21:11.456Z,-2.10
2023-01-26T02:23:47.333Z,-2.10
2023-01-26T02:26:23.082Z,-2.10
2023-01-26T02:28:51.964Z,-2.10
2023-01-26T02:31:19.746Z,-2.10
2023-01-26T02:33:47.913Z,-2.10
2023-01-26T02:36:23.830Z,-2.10
2023-01-26T02:39:26.865Z,-2.10
2023-01-26T02:42:13.283Z,-2.10
2023-01-26T02:44:42.531Z,-2.10
2023-01-26T02:47:18.929Z,-2.20
2023-01-26T02:49:47.097Z,-2.20
2023-01-26T02:52:17.433Z,-2.10
2023-01-26T02:55:04.821Z,-2.10
2023-01-26T02:57:34.309Z,-2.10
2023-01-26T03:00:01.671Z,-2.10
2023-01-26T03:02:31.059Z,-2.10
2023-01-26T03:04:57.918Z,-2.10
2023-01-26T03:07:25.394Z,-2.20
2023-01-26T03:09:52.322Z,-2.10
2023-01-26T03:12:19.104Z,-2.10
2023-01-26T03:15:07.338Z,-2.20
2023-01-26T03:17:34.171Z,-2.20
2023-01-26T03:20:23.151Z,-2.20
2023-01-26T03:23:12.815Z,-2.20
2023-01-26T03:25:58.848Z,-2.20
2023-01-26T03:28:28.002Z,-2.20
2023-01-26T03:30:57.972Z,-2.20
2023-01-26T03:33:25.081Z,-2.20
2023-01-26T03:35:54.854Z,-2.20
2023-01-26T03:38:22.891Z,-2.20
2023-01-26T03:41:16.393Z,-2.20
2023-01-26T03:44:01.879Z,-2.30
2023-01-26T03:46:48.139Z,-2.20
2023-01-26T03:49:34.389Z,-2.20
2023-01-26T03:52:19.841Z,-2.20
2023-01-26T03:55:06.464Z,-2.20
2023-01-26T03:57:33.450Z,-2.30
2023-01-26T04:00:00.323Z,-2.30
2023-01-26T04:02:46.271Z,-2.20
2023-01-26T04:05:31.536Z,-2.20
2023-01-26T04:08:20.577Z,-2.20
2023-01-26T04:10:47.998Z,-2.30
2023-01-26T04:13:33.212Z,-2.30
2023-01-26T04:16:25.451Z,-2.30
2023-01-26T04:19:10.974Z,-2.30
2023-01-26T04:21:37.959Z,-2.40
2023-01-26T04:24:17.215Z,-2.40
2023-01-26T04:26:45.496Z,-2.40
2023-01-26T04:29:17.437Z,-2.40
2023-01-26T04:31:46.263Z,-2.40
2023-01-26T04:34:16.424Z,-2.40
2023-01-26T04:36:44.213Z,-2.50
2023-01-26T04:39:11.259Z,-2.50
2023-01-26T04:41:42.486Z,-2.50
2023-01-26T04:44:12.462Z,-2.60
2023-01-26T04:46:39.569Z,-2.50
2023-01-26T04:49:06.951Z,-2.50
2023-01-26T04:51:34.618Z,-2.60
2023-01-26T04:54:01.645Z,-2.60
2023-01-26T04:56:31.463Z,-2.60
2023-01-26T04:59:02.781Z,-2.60
2023-01-26T05:01:31.594Z,-2.60
2023-01-26T05:04:03.181Z,-2.60
2023-01-26T05:06:32.050Z,-2.70
2023-01-26T05:08:59.753Z,-2.70
2023-01-26T05:11:28.010Z,-2.70
2023-01-26T05:13:59.858Z,-2.70
2023-01-26T05:16:55.946Z,-2.70
2023-01-26T05:19:55.032Z,-2.80
2023-01-26T05:22:27.835Z,-2.80
2023-01-26T05:25:13.392Z,-2.80
2023-01-26T05:27:48.223Z,-2.80
2023-01-26T05:30:15.991Z,-2.80
2023-01-26T05:32:43.072Z,-2.90
2023-01-26T05:35:11.942Z,-2.90
2023-01-26T05:37:38.738Z,-2.90
2023-01-26T05:40:06.141Z,-2.90
2023-01-26T05:42:33.029Z,-2.90
2023-01-26T05:45:18.588Z,-3.00
2023-01-26T05:47:46.480Z,-3.00
2023-01-26T05:50:13.963Z,-3.00
2023-01-26T05:52:44.004Z,-3.00
2023-01-26T05:55:10.828Z,-3.00
2023-01-26T05:57:38.431Z,-3.00
2023-01-26T06:00:09.778Z,-3.00
2023-01-26T06:02:50.900Z,-3.00
2023-01-26T06:05:17.798Z,-3.00
2023-01-26T06:07:46.137Z,-3.00
2023-01-26T06:10:24.656Z,-3.00
2023-01-26T06:13:03.560Z,-3.00
2023-01-26T06:15:39.753Z,-3.00
2023-01-26T06:18:07.509Z,-3.00
2023-01-26T06:20:35.416Z,-3.10
2023-01-26T06:23:05.783Z,-3.00
2023-01-26T06:25:34.833Z,-3.10
2023-01-26T06:28:03.260Z,-3.10
2023-01-26T06:30:31.891Z,-3.10
2023-01-26T06:33:02.210Z,-3.10
2023-01-26T06:35:30.236Z,-3.10
2023-01-26T06:38:01.715Z,-3.10
2023-01-26T06:40:28.645Z,-3.10
2023-01-26T06:42:55.486Z,-3.10
2023-01-26T06:45:22.755Z,-3.20
2023-01-26T06:47:52.368Z,-3.20
2023-01-26T06:50:25.029Z,-3.20
2023-01-26T06:52:56.335Z,-3.20
2023-01-26T06:55:52.042Z,-3.20
2023-01-26T06:58:41.648Z,-3.20
2023-01-26T07:01:33.502Z,-3.20
2023-01-26T07:04:00.394Z,-3.20
2023-01-26T07:06:27.161Z,-3.20
2023-01-26T07:08:54.174Z,-3.20
2023-01-26T07:11:22.046Z,-3.20
2023-01-26T07:13:48.894Z,-3.20
2023-01-26T07:16:16.933Z,-3.20
2023-01-26T07:18:43.874Z,-3.20
2023-01-26T07:21:13.976Z,-3.20
2023-01-26T07:23:40.943Z,-3.20
2023-01-26T07:26:07.745Z,-3.20
2023-01-26T07:28:34.614Z,-3.10
2023-01-26T07:31:02.664Z,-3.10
2023-01-26T07:33:30.417Z,-3.10
2023-01-26T07:35:58.138Z,-3.10
2023-01-26T07:38:26.238Z,-3.00
2023-01-26T07:40:53.318Z,-3.10
2023-01-26T07:43:20.237Z,-3.00
2023-01-26T07:45:57.045Z,-3.00
2023-01-26T07:48:24.664Z,-3.00
2023-01-26T07:50:51.827Z,-3.00
2023-01-26T07:53:19.791Z,-3.00
2023-01-26T07:55:47.202Z,-3.00
2023-01-26T07:58:14.100Z,-3.00
2023-01-26T08:00:41.310Z,-3.00
2023-01-26T08:03:08.220Z,-3.00
2023-01-26T08:05:36.945Z,-3.00
2023-01-26T08:08:05.039Z,-3.00
2023-01-26T08:10:32.163Z,-3.00
2023-01-26T08:13:03.079Z,-3.00
2023-01-26T08:15:30.351Z,-3.00
2023-01-26T08:17:57.332Z,-3.00
2023-01-26T08:20:24.345Z,-3.00
2023-01-26T08:22:51.216Z,-3.00
2023-01-26T08:25:18.090Z,-2.90
2023-01-26T08:27:44.958Z,-3.00
2023-01-26T08:30:13.275Z,-2.90
2023-01-26T08:32:40.269Z,-2.90
2023-01-26T08:35:07.532Z,-2.90
2023-01-26T08:37:34.387Z,-2.90
2023-01-26T08:40:01.289Z,-2.80
2023-01-26T08:42:28.811Z,-2.80
2023-01-26T08:44:55.827Z,-2.90
2023-01-26T08:47:22.567Z,-2.80
2023-01-26T08:49:49.460Z,-2.80
2023-01-26T08:52:16.771Z,-2.70
2023-01-26T08:54:43.780Z,-2.80
2023-01-26T08:57:12.141Z,-2.70
2023-01-26T08:59:39.342Z,-2.70
2023-01-26T09:02:06.340Z,-2.70
2023-01-26T09:04:33.831Z,-2.70
2023-01-26T09:07:00.637Z,-2.70
2023-01-26T09:09:27.417Z,-2.60
2023-01-26T09:11:57.665Z,-2.60
2023-01-26T09:14:24.563Z,-2.70
2023-01-26T09:16:51.424Z,-2.60
2023-01-26T09:19:18.480Z,-2.60
2023-01-26T09:21:45.299Z,-2.60
2023-01-26T09:24:12.139Z,-2.60
2023-01-26T09:26:38.981Z,-2.60
2023-01-26T09:29:05.841Z,-2.50
2023-01-26T09:31:32.752Z,-2.50
2023-01-26T09:33:59.687Z,-2.50
2023-01-26T09:36:26.978Z,-2.50
2023-01-26T09:38:54.117Z,-2.40
2023-01-26T09:41:26.711Z,-2.50
2023-01-26T09:43:57.930Z,-2.40
2023-01-26T09:46:32.182Z,-2.40
2023-01-26T09:48:59.052Z,-2.40
2023-01-26T09:51:41.792Z,-2.40
2023-01-26T09:54:17.371Z,-2.30
2023-01-26T09:56:45.030Z,-2.30
2023-01-26T09:59:32.516Z,-2.30
2023-01-26T10:02:11.514Z,-2.30
2023-01-26T10:04:43.333Z,-2.30
2023-01-26T10:07:13.039Z,-2.30
2023-01-26T10:09:50.480Z,-2.30
2023-01-26T10:12:17.288Z,-2.30
2023-01-26T10:14:55.906Z,-2.30
2023-01-26T10:17:45.168Z,-2.30
2023-01-26T10:20:15.341Z,-2.30
2023-01-26T10:22:48.692Z,-2.20
2023-01-26T10:25:18.636Z,-2.30
2023-01-26T10:27:46.317Z,-2.30
2023-01-26T10:30:17.870Z,-2.30
2023-01-26T10:32:47.432Z,-2.30
2023-01-26T10:35:23.421Z,-2.30
2023-01-26T10:37:53.271Z,-2.30
2023-01-26T10:40:21.402Z,-2.20
2023-01-26T10:42:59.706Z,-2.20
2023-01-26T10:45:32.717Z,-2.20
2023-01-26T10:48:26.740Z,-2.20
2023-01-26T10:50:54.755Z,-2.10
2023-01-26T10:53:30.076Z,-2.10
2023-01-26T10:56:26.173Z,-2.10
2023-01-26T10:58:59.607Z,-2.00
2023-01-26T11:01:29.198Z,-2.00
2023-01-26T11:04:12.160Z,-2.00
2023-01-26T11:06:39.301Z,-2.00
2023-01-26T11:09:32.356Z,-1.90
2023-01-26T11:12:01.583Z,-1.90
2023-01-26T11:14:30.322Z,-1.90
2023-01-26T11:17:14.010Z,-1.90
2023-01-26T11:19:53.741Z,-1.90
2023-01-26T11:22:26.791Z,-1.80
2023-01-26T11:25:17.900Z,-1.80
2023-01-26T11:28:13.531Z,-1.80
2023-01-26T11:30:58.358Z,-1.70
2023-01-26T11:33:46.070Z,-1.70
2023-01-26T11:36:25.643Z,-1.70
2023-01-26T11:39:01.396Z,-1.60
2023-01-26T11:41:40.601Z,-1.60
2023-01-26T11:44:36.136Z,-1.60
2023-01-26T11:47:24.231Z,-1.60
2023-01-26T11:50:21.095Z,-1.60
2023-01-26T11:52:54.215Z,-1.60
2023-01-26T11:55:45.742Z,-1.60
2023-01-26T11:58:21.552Z,-1.60
2023-01-26T12:01:46.823Z,-1.60
2023-01-26T12:04:20.371Z,-1.60
2023-01-26T12:06:54.066Z,-1.60
2023-01-26T12:09:42.133Z,-1.60
2023-01-26T12:12:13.066Z,-1.60
2023-01-26T12:15:05.959Z,-1.60
2023-01-26T12:17:48.002Z,-1.60
2023-01-26T12:20:33.620Z,-1.60
2023-01-26T12:23:09.208Z,-1.60
2023-01-26T12:25:39.394Z,-1.60
2023-01-26T12:28:08.907Z,-1.60
2023-01-26T12:30:50.196Z,-1.60
2023-01-26T12:33:17.103Z,-1.60
2023-01-26T12:36:24.212Z,-1.60
2023-01-26T12:39:16.547Z,-1.60
2023-01-26T12:42:01.689Z,-1.60
2023-01-26T12:44:37.412Z,-1.60
2023-01-26T12:47:27.462Z,-1.60
2023-01-26T12:50:00.395Z,-1.60
2023-01-26T12:52:31.178Z,-1.60
2023-01-26T12:55:05.976Z,-1.60
2023-01-26T12:57:46.524Z,-1.60
2023-01-26T13:00:27.479Z,-1.60
2023-01-26T13:03:00.469Z,-1.60
2023-01-26T13:05:34.228Z,-1.60
2023-01-26T13:08:36.325Z,-1.60
2023-01-26T13:11:08.803Z,-1.60
2023-01-26T13:13:53.922Z,-1.60
2023-01-26T13:16:22.030Z,-1.50
2023-01-26T13:18:54.393Z,-1.50
2023-01-26T13:21:39.467Z,-1.50
2023-01-26T13:24:18.562Z,-1.50
2023-01-26T13:26:57.154Z,-1.50
2023-01-26T13:29:33.057Z,-1.50
2023-01-26T13:32:20.267Z,-1.50
2023-01-26T13:34:54.372Z,-1.50
2023-01-26T13:37:48.092Z,-1.40
2023-01-26T13:40:20.010Z,-1.40
2023-01-26T13:43:27.089Z,-1.40
2023-01-26T13:46:34.077Z,-1.40
2023-01-26T13:49:01.657Z,-1.30
2023-01-26T13:51:31.296Z,-1.30
2023-01-26T13:54:03.507Z,-1.30
2023-01-26T13:56:35.825Z,-1.30
2023-01-26T13:59:15.562Z,-1.20
2023-01-26T14:01:54.023Z,-1.20
2023-01-26T14:04:32.158Z,-1.20
2023-01-26T14:07:06.314Z,-1.20
2023-01-26T14:09:40.849Z,-1.20
2023-01-26T14:12:08.407Z,-1.20
2023-01-26T14:14:37.271Z,-1.20
2023-01-26T14:17:27.602Z,-1.20
2023-01-26T14:19:55.097Z,-1.20
2023-01-26T14:22:22.508Z,-1.20
2023-01-26T14:24:50.900Z,-1.20
2023-01-26T14:27:31.040Z,-1.20
2023-01-26T14:29:59.240Z,-1.20
2023-01-26T14:32:29.372Z,-1.30
2023-01-26T14:35:00.997Z,-1.30
2023-01-26T14:37:28.696Z,-1.20
2023-01-26T14:40:22.275Z,-1.20
2023-01-26T14:42:51.555Z,-1.20
2023-01-26T14:45:29.316Z,-1.20
2023-01-26T14:47:59.485Z,-1.20
2023-01-26T14:50:29.700Z,-1.20
2023-01-26T14:52:57.065Z,-1.20
2023-01-26T14:55:23.891Z,-1.20
2023-01-26T14:57:52.395Z,-1.20
2023-01-26T15:00:36.542Z,-1.20
2023-01-26T15:03:13.958Z,-1.20
2023-01-26T15:05:43.761Z,-1.20
2023-01-26T15:08:22.270Z,-1.20
2023-01-26T15:11:19.164Z,-1.20
2023-01-26T15:13:49.263Z,-1.20
2023-01-26T15:16:21.937Z,-1.20
2023-01-26T15:19:08.460Z,-1.20
2023-01-26T15:21:40.533Z,-1.20
2023-01-26T15:24:13.890Z,-1.20
2023-01-26T15:26:41.631Z,-1.20
2023-01-26T15:29:28.706Z,-1.20
2023-01-26T15:31:57.554Z,-1.20
2023-01-26T15:34:36.845Z,-1.20
2023-01-26T15:37:24.073Z,-1.10
2023-01-26T15:39:50.913Z,-1.20
2023-01-26T15:42:23.927Z,-1.10
2023-01-26T15:44:50.837Z,-1.10
2023-01-26T15:47:17.629Z,-1.10
2023-01-26T15:49:44.691Z,-1.10
2023-01-26T15:52:24.936Z,-1.10
2023-01-26T15:54:53.861Z,-1.10
2023-01-26T15:57:20.627Z,-1.10
2023-01-26T15:59:47.633Z,-1.10
2023-01-26T16:02:19.630Z,-1.10
2023-01-26T16:04:47.323Z,-1.10
2023-01-26T16:07:17.233Z,-1.20
2023-01-26T16:09:44.225Z,-1.10
2023-01-26T16:12:31.275Z,-1.10
2023-01-26T16:14:59.469Z,-1.10
2023-01-26T16:17:26.309Z,-1.10
2023-01-26T16:19:53.117Z,-1.10
2023-01-26T16:22:20.316Z,-1.10
2023-01-26T16:24:47.476Z,-1.10
2023-01-26T16:27:14.250Z,-1.10
2023-01-26T16:29:41.069Z,-1.10
2023-01-26T16:32:28.134Z,-1.10
2023-01-26T16:34:55.151Z,-1.10
2023-01-26T16:37:21.941Z,-1.00
2023-01-26T16:39:48.812Z,-1.10
2023-01-26T16:42:19.920Z,-1.00
2023-01-26T16:44:47.336Z,-1.10
2023-01-26T16:47:14.273Z,-1.10
2023-01-26T16:49:41.098Z,-1.10
2023-01-26T16:52:09.678Z,-1.00
2023-01-26T16:54:37.141Z,-1.00
2023-01-26T16:57:04.056Z,-1.10
2023-01-26T16:59:31.109Z,-1.10
2023-01-26T17:01:58.077Z,-1.10
2023-01-26T17:04:25.228Z,-1.10
2023-01-26T17:06:52.189Z,-1.10
2023-01-26T17:09:20.553Z,-1.10
2023-01-26T17:11:47.311Z,-1.10
2023-01-26T17:14:14.125Z,-1.10
2023-01-26T17:16:41.112Z,-1.10
2023-01-26T17:19:09.376Z,-1.10
2023-01-26T17:21:37.061Z,-1.10
2023-01-26T17:24:04.221Z,-1.10
2023-01-26T17:26:31.208Z,-1.00
2023-01-26T17:28:58.021Z,-1.10
2023-01-26T17:31:25.418Z,-1.10
2023-01-26T17:33:54.322Z,-1.10
2023-01-26T17:36:21.340Z,-1.10
2023-01-26T17:38:49.069Z,-1.10
2023-01-26T17:41:16.906Z,-1.10
2023-01-26T17:43:44.166Z,-1.10
2023-01-26T17:46:16.138Z,-1.10
2023-01-26T17:48:45.267Z,-1.10
2023-01-26T17:51:23.091Z,-1.10
2023-01-26T17:53:50.136Z,-1.10
2023-01-26T17:56:19.361Z,-1.00
2023-01-26T17:58:54.364Z,-1.10
2023-01-26T18:01:23.286Z,-1.10
2023-01-26T18:03:50.190Z,-1.10
2023-01-26T18:06:17.787Z,-1.10
2023-01-26T18:08:44.644Z,-1.10
2023-01-26T18:11:13.498Z,-1.10
2023-01-26T18:13:40.782Z,-1.10
2023-01-26T18:16:12.266Z,-1.10
2023-01-26T18:18:39.186Z,-1.10
2023-01-26T18:21:14.051Z,-1.10
2023-01-26T18:23:47.367Z,-1.10
2023-01-26T18:26:15.353Z,-1.10
2023-01-26T18:28:44.204Z,-1.00
2023-01-26T18:31:17.046Z,-1.00
2023-01-26T18:33:44.952Z,-1.00
2023-01-26T18:36:14.121Z,-1.00
2023-01-26T18:38:50.014Z,-1.00
2023-01-26T18:41:18.890Z,-1.00
2023-01-26T18:43:48.279Z,-1.00
2023-01-26T18:46:15.254Z,-1.00
2023-01-26T18:48:42.212Z,-1.00
2023-01-26T18:51:09.209Z,-1.00
2023-01-26T18:53:38.692Z,-1.00
2023-01-26T18:56:11.669Z,-1.00
2023-01-26T18:58:39.411Z,-1.00
2023-01-26T19:01:10.307Z,-0.90
2023-01-26T19:03:37.424Z,-0.90
2023-01-26T19:06:09.026Z,-1.00
2023-01-26T19:08:35.864Z,-0.90
2023-01-26T19:11:09.394Z,-0.90
2023-01-26T19:13:36.554Z,-0.90
2023-01-26T19:16:03.720Z,-0.90
2023-01-26T19:18:30.578Z,-0.90
2023-01-26T19:20:58.569Z,-0.90
2023-01-26T19:23:25.674Z,-0.90
2023-01-26T19:25:53.236Z,-0.90
2023-01-26T19:28:20.199Z,-0.90
2023-01-26T19:30:47.251Z,-0.90
2023-01-26T19:33:27.997Z,-0.90
2023-01-26T19:35:56.297Z,-0.90
2023-01-26T19:38:24.071Z,-0.90
2023-01-26T19:40:52.242Z,-0.90
2023-01-26T19:43:19.636Z,-0.90
2023-01-26T19:45:52.809Z,-0.90
2023-01-26T19:48:24.938Z,-0.90
2023-01-26T19:51:11.220Z,-0.90
2023-01-26T19:53:40.865Z,-0.90
2023-01-26T19:56:19.986Z,-0.90
2023-01-26T19:59:00.615Z,-0.90
2023-01-26T20:01:29.680Z,-0.90
2023-01-26T20:04:02.175Z,-0.90
2023-01-26T20:06:32.014Z,-0.90
2023-01-26T20:08:59.173Z,-0.90
2023-01-26T20:11:28.860Z,-0.90
2023-01-26T20:14:08.668Z,-0.90
2023-01-26T20:16:35.926Z,-0.90
2023-01-26T20:19:03.507Z,-0.90
2023-01-26T20:21:31.432Z,-0.90
2023-01-26T20:23:58.256Z,-0.90
2023-01-26T20:26:26.670Z,-0.90
2023-01-26T20:28:57.882Z,-0.90
2023-01-26T20:31:25.890Z,-0.90
2023-01-26T20:33:54.064Z,-0.80
2023-01-26T20:36:24.633Z,-0.90
2023-01-26T20:38:51.500Z,-0.90
2023-01-26T20:41:22.463Z,-0.90
2023-01-26T20:43:59.159Z,-0.90
2023-01-26T20:46:30.349Z,-0.80
2023-01-26T20:48:57.792Z,-0.80
2023-01-26T20:51:29.440Z,-0.80
2023-01-26T20:53:57.803Z,-0.80
2023-01-26T20:56:25.835Z,-0.80
2023-01-26T20:58:55.868Z,-0.80
2023-01-26T21:01:24.377Z,-0.80
2023-01-26T21:03:54.781Z,-0.80
2023-01-26T21:06:24.121Z,-0.80
2023-01-26T21:08:54.838Z,-0.80
2023-01-26T21:11:24.631Z,-0.80
2023-01-26T21:13:54.211Z,-0.80
2023-01-26T21:16:21.148Z,-0.80
2023-01-26T21:18:49.214Z,-0.80
2023-01-26T21:21:19.751Z,-0.80
2023-01-26T21:23:47.273Z,-0.80
2023-01-26T21:26:16.920Z,-0.80
2023-01-26T21:28:43.809Z,-0.80
2023-01-26T21:31:13.818Z,-0.80
2023-01-26T21:33:46.230Z,-0.80
2023-01-26T21:36:16.058Z,-0.80
2023-01-26T21:38:44.667Z,-0.80
2023-01-26T21:41:32.561Z,-0.70
2023-01-26T21:44:01.558Z,-0.80
2023-01-26T21:46:29.667Z,-0.80
2023-01-26T21:48:56.882Z,-0.70
2023-01-26T21:51:43.148Z,-0.70
2023-01-26T21:54:10.490Z,-0.70
2023-01-26T21:56:37.883Z,-0.80
2023-01-26T21:59:08.155Z,-0.70
2023-01-26T22:01:40.262Z,-0.70
2023-01-26T22:04:09.756Z,-0.70
2023-01-26T22:06:37.495Z,-0.80
2023-01-26T22:09:07.779Z,-0.80
2023-01-26T22:11:34.781Z,-0.80
2023-01-26T22:14:01.909Z,-0.70
2023-01-26T22:16:29.123Z,-0.80
2023-01-26T22:18:56.068Z,-0.70
2023-01-26T22:21:23.046Z,-0.70
2023-01-26T22:23:50.652Z,-0.80
2023-01-26T22:26:22.339Z,-0.70
2023-01-26T22:28:53.493Z,-0.70
2023-01-26T22:31:22.877Z,-0.70
2023-01-26T22:33:51.350Z,-0.70
2023-01-26T22:36:19.119Z,-0.70
2023-01-26T22:38:46.397Z,-0.70
2023-01-26T22:41:19.593Z,-0.70
2023-01-26T22:43:50.649Z,-0.70
2023-01-26T22:46:18.603Z,-0.70
2023-01-26T22:48:45.691Z,-0.70
2023-01-26T22:51:18.146Z,-0.70
2023-01-26T22:53:45.758Z,-0.70
2023-01-26T22:56:12.876Z,-0.70
2023-01-26T22:58:56.642Z,-0.70
2023-01-26T23:01:25.024Z,-0.70
2023-01-26T23:03:53.800Z,-0.70
2023-01-26T23:06:21.453Z,-0.70
2023-01-26T23:08:48.348Z,-0.60
2023-01-26T23:11:18.776Z,-0.70
2023-01-26T23:13:46.760Z,-0.60
2023-01-26T23:16:14.408Z,-0.60
2023-01-26T23:18:41.374Z,-0.60
2023-01-26T23:21:08.734Z,-0.60
2023-01-26T23:23:35.930Z,-0.60
2023-01-26T23:26:03.384Z,-0.60
2023-01-26T23:28:35.613Z,-0.60
2023-01-26T23:31:02.909Z,-0.60
2023-01-26T23:33:32.028Z,-0.60
2023-01-26T23:35:59.649Z,-0.60
2023-01-26T23:38:28.052Z,-0.60
2023-01-26T23:40:55.388Z,-0.60
2023-01-26T23:43:22.394Z,-0.60
2023-01-26T23:45:50.835Z,-0.60
2023-01-26T23:48:18.480Z,-0.60
2023-01-26T23:50:45.837Z,-0.60
2023-01-26T23:53:12.582Z,-0.60
2023-01-26T23:55:44.007Z,-0.60
2023-01-26T23:58:12.107Z,-0.60
